createdAt,value
2018-08-21T00:01:06.975Z,0
2018-08-21T00:02:16.790Z,0
2018-08-21T00:03:26.624Z,0
2018-08-21T00:04:36.722Z,0
2018-08-21T00:05:46.818Z,0
2018-08-21T00:06:56.392Z,0
2018-08-21T00:08:06.210Z,0
2018-08-21T00:09:16.296Z,0
2018-08-21T00:10:26.386Z,0
2018-08-21T00:11:36.471Z,0
2018-08-21T00:12:46.572Z,0
2018-08-21T00:13:56.706Z,0
2018-08-21T00:15:06.807Z,0
2018-08-21T00:16:16.613Z,0
2018-08-21T00:17:26.714Z,0
2018-08-21T00:18:36.792Z,0
2018-08-21T00:19:46.912Z,0
2018-08-21T00:20:57.000Z,0
2018-08-21T00:22:07.090Z,0
2018-08-21T00:23:16.909Z,0
2018-08-21T00:24:26.996Z,0
2018-08-21T00:25:36.813Z,0
2018-08-21T00:26:46.922Z,0
2018-08-21T00:27:57.002Z,0
2018-08-21T00:29:07.071Z,0
2018-08-21T00:30:17.149Z,0
2018-08-21T00:31:27.290Z,0
2018-08-21T00:32:37.369Z,0
2018-08-21T00:33:47.196Z,0
2018-08-21T00:34:57.263Z,0
2018-08-21T00:36:07.342Z,0
2018-08-21T00:37:17.479Z,0
2018-08-21T00:38:27.552Z,0
2018-08-21T00:39:37.668Z,0
2018-08-21T00:40:47.770Z,0
2018-08-21T00:41:57.595Z,0
2018-08-21T00:43:07.476Z,0
2018-08-21T00:44:17.556Z,0
2018-08-21T00:45:27.361Z,0
2018-08-21T00:46:37.452Z,0
2018-08-21T00:47:47.549Z,0
2018-08-21T00:48:57.624Z,0
2018-08-21T00:50:07.706Z,0
2018-08-21T00:51:17.792Z,0
2018-08-21T00:52:27.879Z,0
2018-08-21T00:53:37.961Z,0
2018-08-21T00:54:47.828Z,0
2018-08-21T00:55:57.898Z,0
2018-08-21T00:57:08.084Z,0
2018-08-21T00:58:18.164Z,0
2018-08-21T00:59:28.254Z,0
2018-08-21T01:00:38.327Z,0
2018-08-21T01:01:48.409Z,0
2018-08-21T01:02:58.490Z,0
2018-08-21T01:04:08.582Z,0
2018-08-21T01:05:18.661Z,0
2018-08-21T01:06:28.546Z,0
2018-08-21T01:07:38.634Z,0
2018-08-21T01:08:48.701Z,0
2018-08-21T01:09:58.816Z,0
2018-08-21T01:11:08.909Z,0
2018-08-21T01:12:18.987Z,0
2018-08-21T01:13:29.057Z,0
2018-08-21T01:14:39.146Z,0
2018-08-21T01:15:49.235Z,0
2018-08-21T01:16:59.328Z,0
2018-08-21T01:18:09.181Z,0
2018-08-21T01:19:18.999Z,0
2018-08-21T01:20:28.846Z,0
2018-08-21T01:21:38.932Z,0
2018-08-21T01:22:49.013Z,0
2018-08-21T01:23:59.095Z,0
2018-08-21T01:25:08.956Z,0
2018-08-21T01:26:19.034Z,0
2018-08-21T01:27:29.129Z,0
2018-08-21T01:28:39.263Z,0
2018-08-21T01:29:49.392Z,0
2018-08-21T01:30:59.462Z,0
2018-08-21T01:32:09.559Z,0
2018-08-21T01:33:19.646Z,0
2018-08-21T01:34:29.712Z,0
2018-08-21T01:35:39.605Z,0
2018-08-21T01:36:49.675Z,0
2018-08-21T01:37:59.770Z,0
2018-08-21T01:39:09.853Z,0
2018-08-21T01:40:19.955Z,0
2018-08-21T01:41:30.043Z,0
2018-08-21T01:42:39.861Z,0
2018-08-21T01:43:49.994Z,0
2018-08-21T01:44:59.805Z,0
2018-08-21T01:46:09.900Z,0
2018-08-21T01:47:19.995Z,0
2018-08-21T01:48:30.075Z,0
2018-08-21T01:49:40.170Z,0
2018-08-21T01:50:50.013Z,0
2018-08-21T01:52:00.090Z,0
2018-08-21T01:53:09.909Z,0
2018-08-21T01:54:20.005Z,0
2018-08-21T01:55:30.100Z,0
2018-08-21T01:56:40.179Z,0
2018-08-21T01:57:50.320Z,0
2018-08-21T01:59:00.446Z,0
2018-08-21T02:00:10.534Z,0
2018-08-21T02:01:20.369Z,0
2018-08-21T02:02:30.447Z,0
2018-08-21T02:03:40.531Z,0
2018-08-21T02:04:50.626Z,0
2018-08-21T02:06:00.723Z,0
2018-08-21T02:07:10.550Z,0
2018-08-21T02:08:20.623Z,0
2018-08-21T02:09:30.737Z,0
2018-08-21T02:10:40.820Z,0
2018-08-21T02:11:50.650Z,0
2018-08-21T02:13:00.730Z,0
2018-08-21T02:14:10.831Z,0
2018-08-21T02:15:20.658Z,0
2018-08-21T02:16:30.752Z,0
2018-08-21T02:17:40.590Z,0
2018-08-21T02:18:50.652Z,0
2018-08-21T02:20:00.868Z,0
2018-08-21T02:21:10.695Z,0
2018-08-21T02:22:20.835Z,0
2018-08-21T02:23:30.914Z,0
2018-08-21T02:24:41.016Z,0
2018-08-21T02:25:51.101Z,0
2018-08-21T02:27:01.202Z,0
2018-08-21T02:28:11.278Z,0
2018-08-21T02:29:21.352Z,0
2018-08-21T02:30:31.167Z,0
2018-08-21T02:31:40.994Z,0
2018-08-21T02:32:51.090Z,0
2018-08-21T02:34:01.162Z,0
2018-08-21T02:35:10.972Z,0
2018-08-21T02:36:21.048Z,0
2018-08-21T02:37:30.888Z,0
2018-08-21T02:38:40.977Z,0
2018-08-21T02:39:51.074Z,0
2018-08-21T02:41:01.147Z,0
2018-08-21T02:42:10.987Z,0
2018-08-21T02:43:20.803Z,0
2018-08-21T02:44:30.877Z,0
2018-08-21T02:45:40.971Z,0
2018-08-21T02:46:51.062Z,0
2018-08-21T02:48:00.874Z,0
2018-08-21T02:49:10.947Z,0
2018-08-21T02:50:20.772Z,0
2018-08-21T02:51:30.872Z,0
2018-08-21T02:52:40.965Z,0
2018-08-21T02:53:51.045Z,0
2018-08-21T02:55:00.882Z,0
2018-08-21T02:56:10.955Z,0
2018-08-21T02:57:21.079Z,0
2018-08-21T02:58:31.172Z,0
2018-08-21T02:59:40.984Z,0
2018-08-21T03:00:50.791Z,0
2018-08-21T03:02:00.893Z,0
2018-08-21T03:35:14.883Z,8
2018-08-21T03:36:24.967Z,8
2018-08-21T03:37:35.043Z,8
2018-08-21T03:38:44.858Z,12
2018-08-21T03:39:54.951Z,16
2018-08-21T03:41:04.845Z,16
2018-08-21T03:42:14.936Z,16
2018-08-21T03:43:25.028Z,24
2018-08-21T03:44:35.090Z,24
2018-08-21T03:45:44.901Z,28
2018-08-21T03:46:55.036Z,32
2018-08-21T03:48:04.860Z,40
2018-08-21T03:49:14.945Z,44
2018-08-21T03:50:25.032Z,48
2018-08-21T03:51:35.145Z,56
2018-08-21T03:52:45.297Z,64
2018-08-21T03:53:55.114Z,76
2018-08-21T03:55:05.175Z,84
2018-08-21T03:56:15.276Z,96
2018-08-21T03:57:25.088Z,104
2018-08-21T03:58:35.159Z,120
2018-08-21T03:59:44.971Z,132
2018-08-21T04:00:54.778Z,152
2018-08-21T04:02:04.855Z,164
2018-08-21T04:03:14.679Z,184
2018-08-21T04:04:24.836Z,200
2018-08-21T04:05:34.926Z,220
2018-08-21T04:06:44.998Z,240
2018-08-21T04:07:55.076Z,260
2018-08-21T04:09:04.898Z,284
2018-08-21T04:10:14.990Z,304
2018-08-21T04:11:25.062Z,328
2018-08-21T04:12:34.887Z,356
2018-08-21T04:13:44.715Z,380
2018-08-21T04:14:54.797Z,404
2018-08-21T04:16:04.658Z,432
2018-08-21T04:17:14.742Z,460
2018-08-21T04:18:24.608Z,492
2018-08-21T04:19:34.705Z,524
2018-08-21T04:20:44.788Z,552
2018-08-21T04:21:54.941Z,588
2018-08-21T04:23:05.402Z,624
2018-08-21T04:24:15.490Z,672
2018-08-21T04:25:25.313Z,732
2018-08-21T04:26:35.384Z,808
2018-08-21T04:27:45.465Z,796
2018-08-21T04:28:55.547Z,828
2018-08-21T04:30:05.609Z,872
2018-08-21T04:31:15.683Z,928
2018-08-21T04:32:25.755Z,1016
2018-08-21T04:33:35.565Z,1104
2018-08-21T04:34:45.641Z,1384
2018-08-21T04:35:55.720Z,1360
2018-08-21T04:37:05.806Z,1604
2018-08-21T04:38:16.024Z,1848
2018-08-21T04:39:25.638Z,1884
2018-08-21T04:40:35.706Z,1956
2018-08-21T04:41:45.780Z,2028
2018-08-21T04:42:55.857Z,2088
2018-08-21T04:44:05.670Z,2220
2018-08-21T04:45:15.533Z,2360
2018-08-21T04:46:26.100Z,2500
2018-08-21T04:47:36.441Z,2704
2018-08-21T04:48:46.268Z,2904
2018-08-21T04:49:56.349Z,3036
2018-08-21T04:51:06.172Z,3152
2018-08-21T04:52:16.241Z,3280
2018-08-21T04:53:26.336Z,3392
2018-08-21T04:54:36.426Z,3612
2018-08-21T04:55:46.272Z,3708
2018-08-21T04:56:56.398Z,3836
2018-08-21T04:58:06.467Z,3848
2018-08-21T04:59:16.987Z,3828
2018-08-21T05:00:27.074Z,3960
2018-08-21T05:01:37.185Z,4108
2018-08-21T05:02:47.376Z,4328
2018-08-21T05:03:57.460Z,4504
2018-08-21T05:05:07.655Z,4644
2018-08-21T05:06:17.772Z,4800
2018-08-21T05:07:27.839Z,4932
2018-08-21T05:08:37.911Z,5032
2018-08-21T05:09:48.003Z,5056
2018-08-21T05:10:58.079Z,5188
2018-08-21T05:12:08.161Z,5364
2018-08-21T05:13:18.239Z,5532
2018-08-21T05:14:28.318Z,5636
2018-08-21T05:15:38.422Z,5644
2018-08-21T05:16:48.498Z,5628
2018-08-21T05:17:58.413Z,5664
2018-08-21T05:19:08.526Z,5680
2018-08-21T05:20:18.604Z,5816
2018-08-21T05:21:28.680Z,5896
2018-08-21T05:22:38.811Z,5980
2018-08-21T05:23:48.373Z,6116
2018-08-21T05:24:58.460Z,6244
2018-08-21T05:26:08.652Z,6260
2018-08-21T05:27:18.741Z,6300
2018-08-21T05:28:28.688Z,6360
2018-08-21T05:29:38.995Z,6356
2018-08-21T05:30:49.070Z,6376
2018-08-21T05:31:59.213Z,6456
2018-08-21T05:33:09.287Z,6464
2018-08-21T05:34:19.362Z,6436
2018-08-21T05:35:29.431Z,6328
2018-08-21T05:36:39.526Z,6316
2018-08-21T05:37:49.650Z,6380
2018-08-21T05:38:59.742Z,6440
2018-08-21T05:40:09.828Z,6548
2018-08-21T05:41:19.922Z,6572
2018-08-21T05:42:30.009Z,6592
2018-08-21T05:43:40.555Z,6592
2018-08-21T05:44:50.843Z,6564
2018-08-21T05:46:00.957Z,6544
2018-08-21T05:47:11.066Z,5200
2018-08-21T05:48:21.144Z,3524
2018-08-21T05:49:31.292Z,3196
2018-08-21T05:50:41.380Z,3184
2018-08-21T05:51:51.469Z,3884
2018-08-21T05:53:01.288Z,5600
2018-08-21T05:54:11.365Z,4968
2018-08-21T05:55:21.824Z,3364
2018-08-21T05:56:32.195Z,3260
2018-08-21T05:57:42.269Z,3268
2018-08-21T05:58:52.350Z,3280
2018-08-21T06:00:02.442Z,3472
2018-08-21T06:01:12.511Z,4352
2018-08-21T06:02:22.322Z,3924
2018-08-21T06:03:32.144Z,3444
2018-08-21T06:04:42.229Z,3392
2018-08-21T06:05:52.325Z,3656
2018-08-21T06:07:01.933Z,4700
2018-08-21T06:08:12.134Z,5732
2018-08-21T06:09:21.977Z,5904
2018-08-21T06:10:31.821Z,5148
2018-08-21T06:11:41.916Z,4060
2018-08-21T06:12:51.791Z,3532
2018-08-21T06:14:01.990Z,3448
2018-08-21T06:15:12.141Z,3408
2018-08-21T06:16:22.206Z,3424
2018-08-21T06:17:32.307Z,3436
2018-08-21T06:18:42.429Z,3448
2018-08-21T06:19:52.563Z,3460
2018-08-21T06:21:02.396Z,3468
2018-08-21T06:22:12.463Z,3480
2018-08-21T06:23:22.311Z,3496
2018-08-21T06:24:32.089Z,3504
2018-08-21T06:25:42.175Z,3516
2018-08-21T06:26:52.303Z,3532
2018-08-21T06:28:02.395Z,3548
2018-08-21T06:29:12.463Z,3552
2018-08-21T06:30:22.274Z,3560
2018-08-21T06:31:32.102Z,3572
2018-08-21T06:32:41.918Z,3588
2018-08-21T06:33:51.743Z,3604
2018-08-21T06:35:01.844Z,3608
2018-08-21T06:36:12.158Z,3624
2018-08-21T06:37:22.393Z,3640
2018-08-21T06:38:32.493Z,3644
2018-08-21T06:39:42.782Z,3652
2018-08-21T06:40:53.049Z,3668
2018-08-21T06:42:03.467Z,3676
2018-08-21T06:43:13.293Z,3692
2018-08-21T06:44:23.357Z,3716
2018-08-21T06:45:33.457Z,3720
2018-08-21T06:46:43.929Z,3744
2018-08-21T06:47:54.006Z,3748
2018-08-21T06:49:03.829Z,3768
2018-08-21T06:50:13.905Z,3776
2018-08-21T06:51:24.000Z,3792
2018-08-21T06:52:34.093Z,3808
2018-08-21T06:53:43.915Z,3824
2018-08-21T06:54:54.062Z,3844
2018-08-21T06:56:04.138Z,3860
2018-08-21T06:57:14.223Z,3868
2018-08-21T06:58:24.318Z,3892
2018-08-21T06:59:34.134Z,3908
2018-08-21T07:00:44.222Z,3924
2018-08-21T07:01:54.301Z,3948
2018-08-21T07:03:04.129Z,3964
2018-08-21T07:04:14.212Z,3980
2018-08-21T07:05:24.319Z,3988
2018-08-21T07:06:34.414Z,4008
2018-08-21T07:07:44.249Z,4024
2018-08-21T07:08:54.327Z,4040
2018-08-21T07:10:04.137Z,4048
2018-08-21T07:11:14.216Z,4064
2018-08-21T07:12:24.287Z,4072
2018-08-21T07:13:34.109Z,4136
2018-08-21T07:14:43.959Z,4100
2018-08-21T07:15:54.038Z,4116
2018-08-21T07:17:04.125Z,4108
2018-08-21T07:18:14.208Z,4124
2018-08-21T07:19:24.300Z,4152
2018-08-21T07:20:34.391Z,4164
2018-08-21T07:21:44.207Z,4176
2018-08-21T07:22:54.292Z,4188
2018-08-21T07:24:04.405Z,4204
2018-08-21T07:25:14.489Z,4216
2018-08-21T07:26:24.067Z,4232
2018-08-21T07:27:33.909Z,4232
2018-08-21T07:28:44.041Z,4252
2018-08-21T07:29:54.111Z,4264
2018-08-21T07:31:04.195Z,4280
2018-08-21T07:32:14.068Z,4300
2018-08-21T07:33:23.883Z,4320
2018-08-21T07:34:33.972Z,4332
2018-08-21T07:35:43.916Z,4356
2018-08-21T07:36:54.180Z,4372
2018-08-21T07:38:04.268Z,4384
2018-08-21T07:39:14.335Z,4404
2018-08-21T07:40:24.407Z,4412
2018-08-21T07:41:34.477Z,4432
2018-08-21T07:42:44.313Z,4436
2018-08-21T07:43:54.394Z,4464
2018-08-21T07:45:04.470Z,4480
2018-08-21T07:46:14.585Z,4500
2018-08-21T07:47:24.749Z,4520
2018-08-21T07:48:34.578Z,4532
2018-08-21T07:49:44.711Z,4540
2018-08-21T07:50:54.543Z,4548
2018-08-21T07:52:04.415Z,4556
2018-08-21T07:53:14.245Z,4572
2018-08-21T07:54:24.065Z,4572
2018-08-21T07:55:33.916Z,4580
2018-08-21T07:56:44.004Z,4588
2018-08-21T07:57:53.925Z,4604
2018-08-21T07:59:04.005Z,4604
2018-08-21T08:00:14.103Z,4628
2018-08-21T08:01:23.916Z,4628
2018-08-21T08:02:34.004Z,4636
2018-08-21T08:03:44.096Z,4640
2018-08-21T08:04:54.190Z,4652
2018-08-21T08:06:04.273Z,4664
2018-08-21T08:07:14.389Z,4664
2018-08-21T08:08:24.514Z,4676
2018-08-21T08:09:34.598Z,4692
2018-08-21T08:10:44.168Z,4704
2018-08-21T08:11:54.011Z,4712
2018-08-21T08:13:03.855Z,4716
2018-08-21T08:14:14.322Z,4728
2018-08-21T08:15:23.903Z,4716
2018-08-21T08:16:33.984Z,4708
2018-08-21T08:17:43.559Z,4748
2018-08-21T08:18:53.673Z,4756
2018-08-21T08:20:03.317Z,4760
2018-08-21T08:21:13.545Z,4776
2018-08-21T08:22:23.630Z,4788
2018-08-21T08:23:34.430Z,4788
2018-08-21T08:24:43.725Z,4788
2018-08-21T08:25:53.811Z,4804
2018-08-21T08:27:03.898Z,4820
2018-08-21T08:28:13.720Z,4824
2018-08-21T08:29:23.817Z,4828
2018-08-21T08:30:33.907Z,4828
2018-08-21T08:31:43.731Z,4852
2018-08-21T08:32:53.826Z,4832
2018-08-21T08:34:03.931Z,4860
2018-08-21T08:35:14.033Z,4864
2018-08-21T08:36:24.150Z,4864
2018-08-21T08:37:34.245Z,4868
2018-08-21T08:38:44.081Z,4876
2018-08-21T08:39:54.148Z,4880
2018-08-21T08:41:04.238Z,4888
2018-08-21T08:42:14.326Z,4900
2018-08-21T08:43:24.411Z,4904
2018-08-21T08:44:34.245Z,4904
2018-08-21T08:45:43.821Z,4916
2018-08-21T08:46:53.375Z,4908
2018-08-21T08:48:03.187Z,4904
2018-08-21T08:49:13.286Z,4908
2018-08-21T08:50:23.441Z,4908
2018-08-21T08:51:33.276Z,4920
2018-08-21T08:52:43.140Z,4924
2018-08-21T08:53:52.953Z,4924
2018-08-21T08:55:02.495Z,4924
2018-08-21T08:56:12.699Z,4920
2018-08-21T08:57:22.541Z,4908
2018-08-21T08:58:32.836Z,4896
2018-08-21T08:59:43.032Z,4876
2018-08-21T09:00:53.109Z,4892
2018-08-21T09:02:03.229Z,4912
2018-08-21T09:03:13.321Z,4920
2018-08-21T09:04:23.420Z,4916
2018-08-21T09:05:33.619Z,4920
2018-08-21T09:06:43.689Z,4908
2018-08-21T09:07:53.763Z,4924
2018-08-21T09:09:03.590Z,4928
2018-08-21T09:10:13.677Z,4940
2018-08-21T09:11:23.756Z,4956
2018-08-21T09:12:33.831Z,4968
2018-08-21T09:13:43.904Z,4964
2018-08-21T09:14:53.985Z,4984
2018-08-21T09:16:03.807Z,5000
2018-08-21T09:17:13.874Z,5016
2018-08-21T09:18:23.950Z,5020
2018-08-21T09:19:33.759Z,5032
2018-08-21T09:20:43.582Z,5028
2018-08-21T09:21:53.671Z,5056
2018-08-21T09:23:03.749Z,5064
2018-08-21T09:24:13.570Z,5064
2018-08-21T09:25:23.396Z,5052
2018-08-21T09:26:33.470Z,5076
2018-08-21T09:27:43.848Z,5084
2018-08-21T09:28:53.987Z,5120
2018-08-21T09:30:03.840Z,5124
2018-08-21T09:31:13.910Z,5148
2018-08-21T09:32:24.014Z,5140
2018-08-21T09:33:34.097Z,5164
2018-08-21T09:34:43.926Z,5176
2018-08-21T09:35:54.007Z,5184
2018-08-21T09:37:04.114Z,5184
2018-08-21T09:38:14.072Z,5204
2018-08-21T09:39:24.446Z,5212
2018-08-21T09:40:34.318Z,5224
2018-08-21T09:41:44.400Z,5236
2018-08-21T09:42:54.515Z,5248
2018-08-21T09:44:04.598Z,5256
2018-08-21T09:45:14.712Z,5264
2018-08-21T09:46:24.579Z,5272
2018-08-21T09:47:34.666Z,5284
2018-08-21T09:48:44.754Z,5280
2018-08-21T09:49:54.572Z,5304
2018-08-21T09:51:04.652Z,5308
2018-08-21T09:52:14.793Z,5320
2018-08-21T09:53:24.882Z,5332
2018-08-21T09:54:34.713Z,5336
2018-08-21T09:55:44.815Z,5332
2018-08-21T09:56:54.911Z,5328
2018-08-21T09:58:05.103Z,5340
2018-08-21T09:59:15.186Z,5344
2018-08-21T10:00:25.035Z,5352
2018-08-21T10:01:35.137Z,5352
2018-08-21T10:02:45.211Z,5372
2018-08-21T10:03:55.302Z,5380
2018-08-21T10:05:05.622Z,5384
2018-08-21T10:06:15.721Z,5388
2018-08-21T10:07:25.809Z,5392
2018-08-21T10:08:35.627Z,5396
2018-08-21T10:09:45.706Z,5400
2018-08-21T10:10:55.808Z,5412
2018-08-21T10:12:05.893Z,5412
2018-08-21T10:13:15.731Z,5416
2018-08-21T10:14:25.841Z,5420
2018-08-21T10:15:35.953Z,5424
2018-08-21T10:16:46.053Z,5448
2018-08-21T10:17:56.125Z,5424
2018-08-21T10:19:06.224Z,5432
2018-08-21T10:20:16.059Z,5432
2018-08-21T10:21:25.931Z,5436
2018-08-21T10:22:36.029Z,5444
2018-08-21T10:23:46.119Z,5452
2018-08-21T10:24:56.209Z,5448
2018-08-21T10:26:06.051Z,5448
2018-08-21T10:27:15.877Z,5468
2018-08-21T10:28:25.980Z,5460
2018-08-21T10:29:35.814Z,5468
2018-08-21T10:30:45.923Z,5444
2018-08-21T10:31:56.000Z,5448
2018-08-21T10:33:06.177Z,5456
2018-08-21T10:34:16.037Z,5464
2018-08-21T10:35:26.129Z,5476
2018-08-21T10:36:35.961Z,5472
2018-08-21T10:37:46.057Z,5476
2018-08-21T10:38:56.154Z,5476
2018-08-21T10:40:05.995Z,5480
2018-08-21T10:41:15.835Z,5500
2018-08-21T10:42:25.927Z,5508
2018-08-21T10:43:36.012Z,5496
2018-08-21T10:44:46.092Z,5492
2018-08-21T10:45:55.953Z,5504
2018-08-21T10:47:05.775Z,5508
2018-08-21T10:48:15.598Z,5512
2018-08-21T10:49:25.437Z,5528
2018-08-21T10:50:35.527Z,5528
2018-08-21T10:51:45.931Z,5588
2018-08-21T10:52:55.839Z,5612
2018-08-21T10:54:05.942Z,5608
2018-08-21T10:55:16.046Z,5624
2018-08-21T10:56:26.125Z,5648
2018-08-21T10:57:36.236Z,5684
2018-08-21T10:58:46.328Z,5684
2018-08-21T10:59:56.421Z,5704
2018-08-21T11:01:06.532Z,5732
2018-08-21T11:02:16.621Z,5748
2018-08-21T11:03:26.784Z,5760
2018-08-21T11:04:36.355Z,5796
2018-08-21T11:05:46.451Z,5816
2018-08-21T11:06:56.292Z,5816
2018-08-21T11:08:06.381Z,5812
2018-08-21T11:09:16.262Z,5828
2018-08-21T11:10:26.359Z,5828
2018-08-21T11:11:36.197Z,5860
2018-08-21T11:12:46.321Z,5816
2018-08-21T11:13:56.420Z,5908
2018-08-21T11:15:06.526Z,5932
2018-08-21T11:16:16.623Z,5936
2018-08-21T11:17:26.715Z,5948
2018-08-21T11:18:36.570Z,5964
2018-08-21T11:19:46.436Z,5960
2018-08-21T11:20:56.016Z,5960
2018-08-21T11:22:05.897Z,5980
2018-08-21T11:23:16.002Z,5972
2018-08-21T11:24:26.092Z,6000
2018-08-21T11:25:36.174Z,6012
2018-08-21T11:26:46.260Z,6028
2018-08-21T11:27:56.337Z,6052
2018-08-21T11:29:06.159Z,6096
2018-08-21T11:30:16.253Z,6104
2018-08-21T11:31:26.349Z,6096
2018-08-21T11:32:36.184Z,6088
2018-08-21T11:33:46.018Z,6104
2018-08-21T11:34:55.584Z,6128
2018-08-21T11:36:05.678Z,6120
2018-08-21T11:37:15.785Z,6128
2018-08-21T11:38:25.969Z,6128
2018-08-21T11:39:36.064Z,6136
2018-08-21T11:40:46.190Z,6132
2018-08-21T11:41:56.043Z,6132
2018-08-21T11:43:06.150Z,6124
2018-08-21T11:44:15.975Z,6116
2018-08-21T11:45:25.819Z,6092
2018-08-21T11:46:35.957Z,6092
2018-08-21T11:47:46.053Z,6028
2018-08-21T11:48:56.208Z,6076
2018-08-21T11:50:06.324Z,6160
2018-08-21T11:51:16.157Z,6164
2018-08-21T11:52:26.235Z,6188
2018-08-21T11:53:36.334Z,6208
2018-08-21T11:54:46.449Z,6216
2018-08-21T11:55:56.587Z,6208
2018-08-21T11:57:06.917Z,6212
2018-08-21T11:58:17.175Z,6224
2018-08-21T11:59:27.265Z,6208
2018-08-21T12:00:37.395Z,6244
2018-08-21T12:01:46.962Z,6288
2018-08-21T12:02:57.076Z,6292
2018-08-21T12:04:07.170Z,6308
2018-08-21T12:05:17.274Z,6320
2018-08-21T12:06:27.431Z,6328
2018-08-21T12:07:37.536Z,6312
2018-08-21T12:08:47.663Z,6296
2018-08-21T12:09:57.819Z,6264
2018-08-21T12:11:08.126Z,6316
2018-08-21T12:12:17.989Z,6324
2018-08-21T12:13:28.086Z,6336
2018-08-21T12:14:38.330Z,6324
2018-08-21T12:15:48.488Z,6336
2018-08-21T12:16:58.322Z,6336
2018-08-21T12:18:08.472Z,6300
2018-08-21T12:19:18.581Z,6348
2018-08-21T12:20:28.690Z,6384
2018-08-21T12:21:38.516Z,6364
2018-08-21T12:22:48.079Z,6352
2018-08-21T12:23:58.526Z,6360
2018-08-21T12:25:08.614Z,6408
2018-08-21T12:26:18.713Z,6444
2018-08-21T12:27:28.827Z,6444
2018-08-21T12:28:38.915Z,6412
2018-08-21T12:29:48.877Z,6356
2018-08-21T12:30:58.821Z,6344
2018-08-21T12:32:08.678Z,6384
2018-08-21T12:33:18.789Z,6324
2018-08-21T12:34:28.881Z,6208
2018-08-21T12:35:38.737Z,6248
2018-08-21T12:36:48.580Z,6192
2018-08-21T12:37:58.409Z,5964
2018-08-21T12:39:08.230Z,6152
2018-08-21T12:40:18.332Z,6188
2018-08-21T12:41:28.177Z,6160
2018-08-21T12:42:38.292Z,6136
2018-08-21T12:43:48.432Z,6140
2018-08-21T12:44:58.542Z,6140
2018-08-21T12:46:08.377Z,6124
2018-08-21T12:47:18.460Z,6116
2018-08-21T12:48:28.539Z,6116
2018-08-21T12:49:38.397Z,6100
2018-08-21T12:50:48.500Z,6072
2018-08-21T12:51:58.628Z,6040
2018-08-21T12:53:08.720Z,6016
2018-08-21T12:54:18.540Z,6024
2018-08-21T12:55:28.611Z,5992
2018-08-21T12:56:38.733Z,5964
2018-08-21T12:57:48.821Z,5944
2018-08-21T12:58:58.929Z,5976
2018-08-21T13:00:08.852Z,5948
2018-08-21T13:01:18.948Z,5892
2018-08-21T13:02:29.043Z,5752
2018-08-21T13:03:39.118Z,5772
2018-08-21T13:04:49.216Z,5816
2018-08-21T13:05:59.363Z,5896
2018-08-21T13:07:09.464Z,5904
2018-08-21T13:08:19.563Z,5924
2018-08-21T13:09:29.410Z,5928
2018-08-21T13:10:39.591Z,5868
2018-08-21T13:11:49.728Z,5304
2018-08-21T13:12:59.832Z,3204
2018-08-21T13:14:09.975Z,5728
2018-08-21T13:15:19.818Z,5836
2018-08-21T13:16:29.897Z,5828
2018-08-21T13:17:40.252Z,5804
2018-08-21T13:18:50.077Z,5768
2018-08-21T13:20:00.158Z,5776
2018-08-21T13:21:10.238Z,5732
2018-08-21T13:22:20.070Z,5712
2018-08-21T13:23:30.218Z,5560
2018-08-21T13:24:40.390Z,5640
2018-08-21T13:25:50.609Z,5628
2018-08-21T13:27:00.447Z,5644
2018-08-21T13:28:10.549Z,5632
2018-08-21T13:29:20.892Z,5588
2018-08-21T13:30:31.165Z,5444
2018-08-21T13:31:41.264Z,5584
2018-08-21T13:32:51.374Z,5548
2018-08-21T13:34:01.229Z,5616
2018-08-21T13:35:11.356Z,5616
2018-08-21T13:36:21.826Z,5588
2018-08-21T13:37:32.046Z,5556
2018-08-21T13:38:42.133Z,5136
2018-08-21T13:39:52.216Z,4464
2018-08-21T13:41:02.367Z,5592
2018-08-21T13:42:12.472Z,5572
2018-08-21T13:43:22.035Z,5496
2018-08-21T13:44:32.284Z,5476
2018-08-21T13:45:42.400Z,5436
2018-08-21T13:46:52.052Z,5396
2018-08-21T13:48:02.162Z,5408
2018-08-21T13:49:12.301Z,5360
2018-08-21T13:50:22.379Z,5344
2018-08-21T13:51:32.477Z,5316
2018-08-21T13:52:43.662Z,5292
2018-08-21T13:53:53.763Z,5300
2018-08-21T13:55:03.873Z,5256
2018-08-21T13:56:13.971Z,5292
2018-08-21T13:57:24.057Z,5308
2018-08-21T13:58:34.386Z,5352
2018-08-21T13:59:44.646Z,5316
2018-08-21T14:00:54.753Z,5364
2018-08-21T14:02:04.638Z,5356
2018-08-21T14:03:14.906Z,5324
2018-08-21T14:04:25.055Z,5268
2018-08-21T14:05:35.161Z,3036
2018-08-21T14:06:45.345Z,2856
2018-08-21T14:07:55.258Z,4728
2018-08-21T14:09:05.123Z,4740
2018-08-21T14:10:15.279Z,5272
2018-08-21T14:11:25.397Z,5396
2018-08-21T14:12:35.288Z,5320
2018-08-21T14:13:45.586Z,5280
2018-08-21T14:14:55.413Z,5272
2018-08-21T14:16:05.569Z,5348
2018-08-21T14:17:15.397Z,5364
2018-08-21T14:18:25.229Z,5368
2018-08-21T14:19:35.323Z,5316
2018-08-21T14:20:45.413Z,5308
2018-08-21T14:21:55.781Z,5316
2018-08-21T14:23:05.897Z,5284
2018-08-21T14:24:16.005Z,5192
2018-08-21T14:25:25.849Z,5120
2018-08-21T14:26:35.977Z,5112
2018-08-21T14:27:45.861Z,5104
2018-08-21T14:28:55.709Z,5112
2018-08-21T14:30:05.297Z,5084
2018-08-21T14:31:15.136Z,5008
2018-08-21T14:32:25.249Z,4988
2018-08-21T14:33:35.140Z,4996
2018-08-21T14:34:45.224Z,4972
2018-08-21T14:35:55.320Z,4972
2018-08-21T14:37:05.408Z,4944
2018-08-21T14:38:15.224Z,4936
2018-08-21T14:39:25.064Z,4836
2018-08-21T14:40:34.897Z,4772
2018-08-21T14:41:45.095Z,4752
2018-08-21T14:42:55.472Z,4724
2018-08-21T14:44:05.617Z,4648
2018-08-21T14:45:15.914Z,4624
2018-08-21T14:46:27.196Z,4588
2018-08-21T14:47:37.777Z,4556
2018-08-21T14:48:47.889Z,4536
2018-08-21T14:49:58.011Z,4556
2018-08-21T14:51:08.270Z,4564
2018-08-21T14:52:18.371Z,4576
2018-08-21T14:53:28.496Z,4576
2018-08-21T14:54:38.588Z,4536
2018-08-21T14:55:48.745Z,4496
2018-08-21T14:56:58.606Z,4464
2018-08-21T14:58:08.611Z,4428
2018-08-21T14:59:18.144Z,4412
2018-08-21T15:00:28.267Z,4372
2018-08-21T15:01:38.723Z,4352
2018-08-21T15:02:48.868Z,4340
2018-08-21T15:03:58.951Z,4316
2018-08-21T15:05:09.043Z,4308
2018-08-21T15:06:19.146Z,4304
2018-08-21T15:07:29.266Z,4312
2018-08-21T15:08:39.397Z,4256
2018-08-21T15:09:49.602Z,4200
2018-08-21T15:10:59.518Z,4140
2018-08-21T15:12:09.598Z,4092
2018-08-21T15:13:19.447Z,4096
2018-08-21T15:14:29.531Z,4100
2018-08-21T15:15:39.635Z,4052
2018-08-21T15:16:49.458Z,4016
2018-08-21T15:17:59.287Z,4012
2018-08-21T15:19:09.398Z,4012
2018-08-21T15:20:19.501Z,4032
2018-08-21T15:21:29.609Z,4004
2018-08-21T15:22:39.480Z,3968
2018-08-21T15:23:49.561Z,3948
2018-08-21T15:24:59.647Z,3872
2018-08-21T15:26:09.817Z,3800
2018-08-21T15:27:19.900Z,3784
2018-08-21T15:28:29.738Z,3744
2018-08-21T15:29:39.573Z,3728
2018-08-21T15:30:49.679Z,3716
2018-08-21T15:31:59.846Z,3664
2018-08-21T15:33:10.047Z,3620
2018-08-21T15:34:20.250Z,3580
2018-08-21T15:35:30.338Z,3556
2018-08-21T15:36:40.462Z,3536
2018-08-21T15:37:50.621Z,3532
2018-08-21T15:39:01.028Z,3520
2018-08-21T15:40:12.437Z,3488
2018-08-21T15:41:22.810Z,3508
2018-08-21T15:42:32.449Z,3512
2018-08-21T15:43:42.696Z,3524
2018-08-21T15:44:52.950Z,3504
2018-08-21T15:46:03.094Z,3508
2018-08-21T15:47:13.191Z,3484
2018-08-21T15:48:23.335Z,3480
2018-08-21T15:49:33.499Z,3500
2018-08-21T15:50:43.599Z,3492
2018-08-21T15:51:53.763Z,3476
2018-08-21T15:53:03.996Z,3404
2018-08-21T15:54:14.165Z,3304
2018-08-21T15:55:24.048Z,3204
2018-08-21T15:56:34.138Z,3152
2018-08-21T15:57:44.252Z,3100
2018-08-21T15:58:54.109Z,3064
2018-08-21T16:00:04.213Z,3044
2018-08-21T16:01:14.068Z,3036
2018-08-21T16:02:23.949Z,3024
2018-08-21T16:03:34.068Z,2992
2018-08-21T16:04:43.664Z,2976
2018-08-21T16:05:53.774Z,2968
2018-08-21T16:07:03.910Z,2932
2018-08-21T16:08:14.009Z,2900
2018-08-21T16:09:24.202Z,2868
2018-08-21T16:10:34.352Z,2816
2018-08-21T16:11:44.833Z,2764
2018-08-21T16:12:55.067Z,2732
2018-08-21T16:14:05.172Z,2712
2018-08-21T16:15:15.027Z,2700
2018-08-21T16:16:24.906Z,2680
2018-08-21T16:17:35.515Z,2652
2018-08-21T16:18:45.489Z,2616
2018-08-21T16:19:55.674Z,2576
2018-08-21T16:21:05.745Z,2524
2018-08-21T16:22:15.582Z,2508
2018-08-21T16:23:25.722Z,2472
2018-08-21T16:24:35.868Z,2440
2018-08-21T16:25:46.017Z,2408